Terminal Aerodrome Forecast
Issued by NWS

Home | Current Version | Previous Version | Graphics & Text | Print | Product List | Glossary On
Versions: 1 2 3 4 5 6 7 8 9 10 11 12 13 14 15
000
FTUS43 KICT 271728
TAFSLN
TAF
KSLN 271728Z 2718/2818 14008KT P6SM OVC150
     FM272100 14012KT P6SM VCSH OVC080
     FM280300 10011KT P6SM -SHRA BKN035
      TEMPO 2805/2807 4SM -TSRA OVC009CB
     FM281100 10008KT 6SM -SHRA OVC005
     FM281600 25004KT P6SM BKN035=

USA.gov is the U.S. government's official web portal to all federal, state and local government web resources and services.